sensor_id;sensor_type;location;lat;lon;timestamp;P1;durP1;ratioP1;P2;durP2;ratioP2
4023;SDS011;2026;51.002;13.668;2023-10-19T00:00:38;11.83;;;7.13;;
4023;SDS011;2026;51.002;13.668;2023-10-19T00:05:45;10.13;;;6.53;;
4023;SDS011;2026;51.002;13.668;2023-10-19T00:10:51;10.40;;;6.90;;
4023;SDS011;2026;51.002;13.668;2023-10-19T00:16:03;10.27;;;7.50;;
4023;SDS011;2026;51.002;13.668;2023-10-19T00:21:13;10.00;;;6.93;;
4023;SDS011;2026;51.002;13.668;2023-10-19T00:26:23;11.43;;;7.40;;
4023;SDS011;2026;51.002;13.668;2023-10-19T00:31:32;8.90;;;6.20;;
4023;SDS011;2026;51.002;13.668;2023-10-19T00:36:38;13.13;;;7.57;;
4023;SDS011;2026;51.002;13.668;2023-10-19T00:41:43;9.47;;;6.30;;
4023;SDS011;2026;51.002;13.668;2023-10-19T00:46:47;12.43;;;7.30;;
4023;SDS011;2026;51.002;13.668;2023-10-19T00:51:55;12.27;;;7.67;;
4023;SDS011;2026;51.002;13.668;2023-10-19T00:57:06;11.90;;;7.10;;
4023;SDS011;2026;51.002;13.668;2023-10-19T01:02:09;13.10;;;7.80;;
4023;SDS011;2026;51.002;13.668;2023-10-19T01:07:31;14.13;;;7.93;;
4023;SDS011;2026;51.002;13.668;2023-10-19T01:12:40;10.20;;;7.07;;
4023;SDS011;2026;51.002;13.668;2023-10-19T01:17:45;13.27;;;6.50;;
4023;SDS011;2026;51.002;13.668;2023-10-19T01:22:56;15.20;;;7.50;;
4023;SDS011;2026;51.002;13.668;2023-10-19T01:28:23;15.67;;;7.10;;
4023;SDS011;2026;51.002;13.668;2023-10-19T01:33:27;10.47;;;7.03;;
4023;SDS011;2026;51.002;13.668;2023-10-19T01:38:33;14.07;;;6.57;;
4023;SDS011;2026;51.002;13.668;2023-10-19T01:43:37;12.30;;;7.67;;
4023;SDS011;2026;51.002;13.668;2023-10-19T01:48:42;11.50;;;7.67;;
4023;SDS011;2026;51.002;13.668;2023-10-19T01:53:47;9.40;;;6.80;;
4023;SDS011;2026;51.002;13.668;2023-10-19T01:58:50;12.90;;;8.03;;
4023;SDS011;2026;51.002;13.668;2023-10-19T02:03:54;12.67;;;8.80;;
4023;SDS011;2026;51.002;13.668;2023-10-19T02:09:02;13.53;;;7.80;;
4023;SDS011;2026;51.002;13.668;2023-10-19T02:14:18;11.87;;;7.90;;
4023;SDS011;2026;51.002;13.668;2023-10-19T02:19:22;12.60;;;8.00;;
4023;SDS011;2026;51.002;13.668;2023-10-19T02:24:28;14.57;;;8.70;;
4023;SDS011;2026;51.002;13.668;2023-10-19T02:29:31;11.00;;;8.57;;
4023;SDS011;2026;51.002;13.668;2023-10-19T02:34:37;12.30;;;8.53;;
4023;SDS011;2026;51.002;13.668;2023-10-19T02:39:41;12.53;;;9.10;;
4023;SDS011;2026;51.002;13.668;2023-10-19T02:44:45;12.93;;;8.97;;
4023;SDS011;2026;51.002;13.668;2023-10-19T02:49:48;13.83;;;9.13;;
4023;SDS011;2026;51.002;13.668;2023-10-19T02:54:58;13.97;;;8.80;;
4023;SDS011;2026;51.002;13.668;2023-10-19T03:00:01;13.40;;;9.50;;
4023;SDS011;2026;51.002;13.668;2023-10-19T03:05:10;12.23;;;9.30;;
4023;SDS011;2026;51.002;13.668;2023-10-19T03:10:17;18.47;;;9.30;;
4023;SDS011;2026;51.002;13.668;2023-10-19T03:15:25;12.90;;;9.67;;
4023;SDS011;2026;51.002;13.668;2023-10-19T03:20:31;13.87;;;10.03;;
4023;SDS011;2026;51.002;13.668;2023-10-19T03:25:36;14.40;;;10.63;;
4023;SDS011;2026;51.002;13.668;2023-10-19T03:30:56;19.40;;;9.87;;
4023;SDS011;2026;51.002;13.668;2023-10-19T03:36:02;14.30;;;9.90;;
4023;SDS011;2026;51.002;13.668;2023-10-19T03:41:09;13.60;;;9.57;;
4023;SDS011;2026;51.002;13.668;2023-10-19T03:46:12;17.63;;;10.37;;
4023;SDS011;2026;51.002;13.668;2023-10-19T03:51:24;13.57;;;9.97;;
4023;SDS011;2026;51.002;13.668;2023-10-19T03:56:30;15.60;;;10.30;;
4023;SDS011;2026;51.002;13.668;2023-10-19T04:01:34;14.67;;;10.50;;
4023;SDS011;2026;51.002;13.668;2023-10-19T04:06:37;15.90;;;10.83;;
4023;SDS011;2026;51.002;13.668;2023-10-19T04:11:41;17.27;;;11.70;;
4023;SDS011;2026;51.002;13.668;2023-10-19T04:16:57;18.37;;;11.90;;
4023;SDS011;2026;51.002;13.668;2023-10-19T04:22:00;19.30;;;13.30;;
4023;SDS011;2026;51.002;13.668;2023-10-19T04:27:07;21.93;;;12.80;;
4023;SDS011;2026;51.002;13.668;2023-10-19T04:32:10;37.63;;;18.27;;
4023;SDS011;2026;51.002;13.668;2023-10-19T04:37:15;21.30;;;14.40;;
4023;SDS011;2026;51.002;13.668;2023-10-19T04:42:21;19.47;;;14.83;;
4023;SDS011;2026;51.002;13.668;2023-10-19T04:47:24;22.10;;;15.50;;
4023;SDS011;2026;51.002;13.668;2023-10-19T04:52:27;20.23;;;13.97;;
4023;SDS011;2026;51.002;13.668;2023-10-19T04:57:31;17.93;;;12.97;;
4023;SDS011;2026;51.002;13.668;2023-10-19T05:02:34;17.70;;;12.00;;
4023;SDS011;2026;51.002;13.668;2023-10-19T05:07:38;17.13;;;12.30;;
4023;SDS011;2026;51.002;13.668;2023-10-19T05:12:42;15.80;;;11.53;;
4023;SDS011;2026;51.002;13.668;2023-10-19T05:17:45;18.17;;;13.33;;
4023;SDS011;2026;51.002;13.668;2023-10-19T05:22:49;18.13;;;13.13;;
4023;SDS011;2026;51.002;13.668;2023-10-19T05:27:53;15.97;;;12.17;;
4023;SDS011;2026;51.002;13.668;2023-10-19T05:32:56;19.07;;;12.70;;
4023;SDS011;2026;51.002;13.668;2023-10-19T05:37:59;19.00;;;12.57;;
4023;SDS011;2026;51.002;13.668;2023-10-19T05:43:04;18.37;;;13.20;;
4023;SDS011;2026;51.002;13.668;2023-10-19T05:48:09;19.90;;;14.67;;
4023;SDS011;2026;51.002;13.668;2023-10-19T05:53:13;19.23;;;14.20;;
4023;SDS011;2026;51.002;13.668;2023-10-19T05:58:21;22.90;;;16.07;;
4023;SDS011;2026;51.002;13.668;2023-10-19T06:03:24;22.00;;;15.97;;
4023;SDS011;2026;51.002;13.668;2023-10-19T06:08:27;23.30;;;16.67;;
4023;SDS011;2026;51.002;13.668;2023-10-19T06:13:32;22.87;;;16.60;;
4023;SDS011;2026;51.002;13.668;2023-10-19T06:18:35;22.13;;;16.07;;
4023;SDS011;2026;51.002;13.668;2023-10-19T06:23:38;25.80;;;17.93;;
4023;SDS011;2026;51.002;13.668;2023-10-19T06:28:42;25.10;;;16.90;;
4023;SDS011;2026;51.002;13.668;2023-10-19T06:33:45;30.40;;;18.53;;
4023;SDS011;2026;51.002;13.668;2023-10-19T06:38:48;26.60;;;17.93;;
4023;SDS011;2026;51.002;13.668;2023-10-19T06:43:54;23.63;;;16.73;;
4023;SDS011;2026;51.002;13.668;2023-10-19T06:48:57;23.90;;;17.23;;
4023;SDS011;2026;51.002;13.668;2023-10-19T06:54:02;24.60;;;17.80;;
4023;SDS011;2026;51.002;13.668;2023-10-19T06:59:06;24.70;;;17.60;;
4023;SDS011;2026;51.002;13.668;2023-10-19T07:04:09;25.90;;;17.80;;
4023;SDS011;2026;51.002;13.668;2023-10-19T07:09:13;25.73;;;16.90;;
4023;SDS011;2026;51.002;13.668;2023-10-19T07:14:18;27.63;;;18.83;;
4023;SDS011;2026;51.002;13.668;2023-10-19T07:19:21;26.10;;;18.20;;
4023;SDS011;2026;51.002;13.668;2023-10-19T07:24:24;25.33;;;17.40;;
4023;SDS011;2026;51.002;13.668;2023-10-19T07:29:29;22.70;;;17.10;;
4023;SDS011;2026;51.002;13.668;2023-10-19T07:34:33;26.57;;;19.47;;
4023;SDS011;2026;51.002;13.668;2023-10-19T07:39:36;28.13;;;18.47;;
4023;SDS011;2026;51.002;13.668;2023-10-19T07:44:42;27.70;;;18.90;;
4023;SDS011;2026;51.002;13.668;2023-10-19T07:49:45;27.17;;;18.40;;
4023;SDS011;2026;51.002;13.668;2023-10-19T07:54:49;27.30;;;20.23;;
4023;SDS011;2026;51.002;13.668;2023-10-19T07:59:53;28.27;;;20.17;;
4023;SDS011;2026;51.002;13.668;2023-10-19T08:04:58;30.53;;;19.10;;
4023;SDS011;2026;51.002;13.668;2023-10-19T08:10:01;26.17;;;18.93;;
4023;SDS011;2026;51.002;13.668;2023-10-19T08:15:06;29.13;;;20.70;;
4023;SDS011;2026;51.002;13.668;2023-10-19T08:20:12;26.47;;;19.17;;
4023;SDS011;2026;51.002;13.668;2023-10-19T08:25:25;24.90;;;17.77;;
4023;SDS011;2026;51.002;13.668;2023-10-19T08:30:45;25.53;;;18.43;;
4023;SDS011;2026;51.002;13.668;2023-10-19T08:35:58;24.33;;;17.03;;
4023;SDS011;2026;51.002;13.668;2023-10-19T08:41:02;24.20;;;17.90;;
4023;SDS011;2026;51.002;13.668;2023-10-19T08:46:06;24.33;;;17.27;;
4023;SDS011;2026;51.002;13.668;2023-10-19T08:51:10;26.97;;;18.13;;
4023;SDS011;2026;51.002;13.668;2023-10-19T08:56:13;24.13;;;17.03;;
4023;SDS011;2026;51.002;13.668;2023-10-19T09:01:19;26.20;;;18.60;;
4023;SDS011;2026;51.002;13.668;2023-10-19T09:06:25;22.60;;;16.70;;
4023;SDS011;2026;51.002;13.668;2023-10-19T09:11:30;23.47;;;16.10;;
4023;SDS011;2026;51.002;13.668;2023-10-19T09:16:35;20.67;;;16.03;;
4023;SDS011;2026;51.002;13.668;2023-10-19T09:21:38;21.93;;;15.30;;
4023;SDS011;2026;51.002;13.668;2023-10-19T09:26:41;22.23;;;15.93;;
4023;SDS011;2026;51.002;13.668;2023-10-19T09:31:46;22.53;;;14.87;;
4023;SDS011;2026;51.002;13.668;2023-10-19T09:36:51;20.90;;;15.67;;
4023;SDS011;2026;51.002;13.668;2023-10-19T09:41:54;20.90;;;15.40;;
4023;SDS011;2026;51.002;13.668;2023-10-19T09:47:04;26.90;;;17.93;;
4023;SDS011;2026;51.002;13.668;2023-10-19T09:52:13;22.93;;;17.60;;
4023;SDS011;2026;51.002;13.668;2023-10-19T09:57:18;22.97;;;16.93;;
4023;SDS011;2026;51.002;13.668;2023-10-19T10:02:30;18.93;;;14.20;;
4023;SDS011;2026;51.002;13.668;2023-10-19T10:07:34;16.93;;;13.30;;
4023;SDS011;2026;51.002;13.668;2023-10-19T10:12:41;19.40;;;13.60;;
4023;SDS011;2026;51.002;13.668;2023-10-19T10:17:45;26.00;;;20.70;;
4023;SDS011;2026;51.002;13.668;2023-10-19T10:28:21;26.20;;;18.63;;
4023;SDS011;2026;51.002;13.668;2023-10-19T10:33:39;26.20;;;15.73;;
4023;SDS011;2026;51.002;13.668;2023-10-19T10:38:44;24.43;;;17.50;;
4023;SDS011;2026;51.002;13.668;2023-10-19T10:43:48;22.43;;;16.90;;
4023;SDS011;2026;51.002;13.668;2023-10-19T10:48:55;25.80;;;17.83;;
4023;SDS011;2026;51.002;13.668;2023-10-19T10:53:58;23.37;;;17.70;;
4023;SDS011;2026;51.002;13.668;2023-10-19T10:59:11;25.27;;;19.27;;
4023;SDS011;2026;51.002;13.668;2023-10-19T11:04:16;23.90;;;17.63;;
4023;SDS011;2026;51.002;13.668;2023-10-19T11:09:21;21.00;;;15.00;;
4023;SDS011;2026;51.002;13.668;2023-10-19T11:14:24;22.30;;;16.10;;
4023;SDS011;2026;51.002;13.668;2023-10-19T11:19:38;20.77;;;16.53;;
4023;SDS011;2026;51.002;13.668;2023-10-19T11:24:41;17.10;;;13.10;;
4023;SDS011;2026;51.002;13.668;2023-10-19T11:29:53;19.10;;;14.90;;
4023;SDS011;2026;51.002;13.668;2023-10-19T11:34:58;16.00;;;13.60;;
4023;SDS011;2026;51.002;13.668;2023-10-19T11:40:01;19.50;;;14.67;;
4023;SDS011;2026;51.002;13.668;2023-10-19T11:45:06;20.10;;;15.20;;
4023;SDS011;2026;51.002;13.668;2023-10-19T11:50:11;21.47;;;16.00;;
4023;SDS011;2026;51.002;13.668;2023-10-19T11:55:16;20.50;;;14.37;;
4023;SDS011;2026;51.002;13.668;2023-10-19T12:00:19;20.77;;;15.47;;
4023;SDS011;2026;51.002;13.668;2023-10-19T12:05:27;22.07;;;16.87;;
4023;SDS011;2026;51.002;13.668;2023-10-19T12:10:30;23.43;;;17.97;;
4023;SDS011;2026;51.002;13.668;2023-10-19T12:15:36;25.60;;;18.90;;
4023;SDS011;2026;51.002;13.668;2023-10-19T12:20:41;30.83;;;21.60;;
4023;SDS011;2026;51.002;13.668;2023-10-19T12:25:46;29.63;;;21.23;;
4023;SDS011;2026;51.002;13.668;2023-10-19T12:30:58;30.80;;;20.20;;
4023;SDS011;2026;51.002;13.668;2023-10-19T12:36:02;33.00;;;21.07;;
4023;SDS011;2026;51.002;13.668;2023-10-19T12:41:24;27.83;;;20.40;;
4023;SDS011;2026;51.002;13.668;2023-10-19T12:46:27;28.83;;;20.50;;
4023;SDS011;2026;51.002;13.668;2023-10-19T12:51:32;26.37;;;19.83;;
4023;SDS011;2026;51.002;13.668;2023-10-19T12:56:35;26.57;;;19.97;;
4023;SDS011;2026;51.002;13.668;2023-10-19T13:01:40;28.10;;;20.27;;
4023;SDS011;2026;51.002;13.668;2023-10-19T13:06:47;30.43;;;21.33;;
4023;SDS011;2026;51.002;13.668;2023-10-19T13:11:50;36.27;;;24.10;;
4023;SDS011;2026;51.002;13.668;2023-10-19T13:16:53;30.57;;;21.10;;
4023;SDS011;2026;51.002;13.668;2023-10-19T13:21:58;30.07;;;21.60;;
4023;SDS011;2026;51.002;13.668;2023-10-19T13:27:09;27.53;;;20.83;;
4023;SDS011;2026;51.002;13.668;2023-10-19T13:32:12;27.50;;;20.47;;
4023;SDS011;2026;51.002;13.668;2023-10-19T13:37:16;32.70;;;23.10;;
4023;SDS011;2026;51.002;13.668;2023-10-19T13:42:19;26.77;;;20.60;;
4023;SDS011;2026;51.002;13.668;2023-10-19T13:47:22;28.53;;;21.20;;
4023;SDS011;2026;51.002;13.668;2023-10-19T13:52:26;28.10;;;19.57;;
4023;SDS011;2026;51.002;13.668;2023-10-19T13:57:29;27.10;;;18.20;;
4023;SDS011;2026;51.002;13.668;2023-10-19T14:02:32;30.60;;;20.30;;
4023;SDS011;2026;51.002;13.668;2023-10-19T14:07:37;27.03;;;20.83;;
4023;SDS011;2026;51.002;13.668;2023-10-19T14:12:41;25.93;;;18.00;;
4023;SDS011;2026;51.002;13.668;2023-10-19T14:17:45;24.53;;;18.57;;
4023;SDS011;2026;51.002;13.668;2023-10-19T14:22:51;29.73;;;22.33;;
4023;SDS011;2026;51.002;13.668;2023-10-19T14:27:55;30.20;;;22.10;;
4023;SDS011;2026;51.002;13.668;2023-10-19T14:33:00;24.90;;;20.20;;
4023;SDS011;2026;51.002;13.668;2023-10-19T14:38:05;28.17;;;20.27;;
4023;SDS011;2026;51.002;13.668;2023-10-19T14:43:10;34.50;;;24.50;;
4023;SDS011;2026;51.002;13.668;2023-10-19T14:48:13;34.83;;;24.57;;
4023;SDS011;2026;51.002;13.668;2023-10-19T14:53:20;34.47;;;24.90;;
4023;SDS011;2026;51.002;13.668;2023-10-19T14:58:23;38.60;;;27.27;;
4023;SDS011;2026;51.002;13.668;2023-10-19T15:03:27;37.10;;;25.27;;
4023;SDS011;2026;51.002;13.668;2023-10-19T15:08:32;35.60;;;24.93;;
4023;SDS011;2026;51.002;13.668;2023-10-19T15:13:35;33.90;;;24.20;;
4023;SDS011;2026;51.002;13.668;2023-10-19T15:18:38;34.70;;;24.13;;
4023;SDS011;2026;51.002;13.668;2023-10-19T15:23:43;37.33;;;25.83;;
4023;SDS011;2026;51.002;13.668;2023-10-19T15:28:46;37.93;;;25.70;;
4023;SDS011;2026;51.002;13.668;2023-10-19T15:33:50;44.27;;;27.47;;
4023;SDS011;2026;51.002;13.668;2023-10-19T15:38:55;43.37;;;29.20;;
4023;SDS011;2026;51.002;13.668;2023-10-19T15:43:58;39.60;;;27.20;;
4023;SDS011;2026;51.002;13.668;2023-10-19T15:49:01;41.93;;;28.47;;
4023;SDS011;2026;51.002;13.668;2023-10-19T15:54:06;40.33;;;25.87;;
4023;SDS011;2026;51.002;13.668;2023-10-19T15:59:09;45.27;;;28.77;;
4023;SDS011;2026;51.002;13.668;2023-10-19T16:04:12;43.50;;;30.43;;
4023;SDS011;2026;51.002;13.668;2023-10-19T16:09:17;43.33;;;28.90;;
4023;SDS011;2026;51.002;13.668;2023-10-19T16:14:21;42.07;;;28.30;;
4023;SDS011;2026;51.002;13.668;2023-10-19T16:19:25;40.70;;;27.93;;
4023;SDS011;2026;51.002;13.668;2023-10-19T16:24:29;41.80;;;28.37;;
4023;SDS011;2026;51.002;13.668;2023-10-19T16:29:32;53.37;;;33.37;;
4023;SDS011;2026;51.002;13.668;2023-10-19T16:34:35;42.90;;;30.10;;
4023;SDS011;2026;51.002;13.668;2023-10-19T16:39:40;39.10;;;27.77;;
4023;SDS011;2026;51.002;13.668;2023-10-19T16:44:43;45.43;;;31.07;;
4023;SDS011;2026;51.002;13.668;2023-10-19T16:49:46;45.47;;;29.93;;
4023;SDS011;2026;51.002;13.668;2023-10-19T16:54:51;43.83;;;29.13;;
4023;SDS011;2026;51.002;13.668;2023-10-19T16:59:54;44.10;;;30.20;;
4023;SDS011;2026;51.002;13.668;2023-10-19T17:04:57;47.10;;;29.90;;
4023;SDS011;2026;51.002;13.668;2023-10-19T17:10:02;49.10;;;29.97;;
4023;SDS011;2026;51.002;13.668;2023-10-19T17:15:06;39.63;;;28.37;;
4023;SDS011;2026;51.002;13.668;2023-10-19T17:20:13;42.90;;;28.40;;
4023;SDS011;2026;51.002;13.668;2023-10-19T17:25:18;44.87;;;28.27;;
4023;SDS011;2026;51.002;13.668;2023-10-19T17:30:21;39.70;;;27.60;;
4023;SDS011;2026;51.002;13.668;2023-10-19T17:35:24;41.50;;;29.20;;
4023;SDS011;2026;51.002;13.668;2023-10-19T17:40:28;35.33;;;25.83;;
4023;SDS011;2026;51.002;13.668;2023-10-19T17:45:31;42.23;;;27.37;;
4023;SDS011;2026;51.002;13.668;2023-10-19T17:50:34;43.93;;;29.33;;
4023;SDS011;2026;51.002;13.668;2023-10-19T17:55:40;41.03;;;28.10;;
4023;SDS011;2026;51.002;13.668;2023-10-19T18:00:43;43.90;;;31.60;;
4023;SDS011;2026;51.002;13.668;2023-10-19T18:05:46;44.77;;;30.27;;
4023;SDS011;2026;51.002;13.668;2023-10-19T18:10:51;43.20;;;28.83;;
4023;SDS011;2026;51.002;13.668;2023-10-19T18:15:54;43.87;;;30.67;;
4023;SDS011;2026;51.002;13.668;2023-10-19T18:20:57;41.67;;;29.37;;
4023;SDS011;2026;51.002;13.668;2023-10-19T18:26:02;46.83;;;32.50;;
4023;SDS011;2026;51.002;13.668;2023-10-19T18:31:06;43.07;;;31.77;;
4023;SDS011;2026;51.002;13.668;2023-10-19T18:36:10;48.30;;;30.90;;
4023;SDS011;2026;51.002;13.668;2023-10-19T18:41:16;43.20;;;31.77;;
4023;SDS011;2026;51.002;13.668;2023-10-19T18:46:19;49.00;;;33.67;;
4023;SDS011;2026;51.002;13.668;2023-10-19T18:51:23;47.73;;;33.60;;
4023;SDS011;2026;51.002;13.668;2023-10-19T18:56:28;47.40;;;32.30;;
4023;SDS011;2026;51.002;13.668;2023-10-19T19:01:31;49.23;;;33.37;;
4023;SDS011;2026;51.002;13.668;2023-10-19T19:06:35;42.87;;;30.00;;
4023;SDS011;2026;51.002;13.668;2023-10-19T19:11:40;44.80;;;29.90;;
4023;SDS011;2026;51.002;13.668;2023-10-19T19:16:44;47.10;;;29.97;;
4023;SDS011;2026;51.002;13.668;2023-10-19T19:21:48;46.70;;;31.87;;
4023;SDS011;2026;51.002;13.668;2023-10-19T19:26:52;42.00;;;27.73;;
4023;SDS011;2026;51.002;13.668;2023-10-19T19:31:55;42.90;;;27.10;;
4023;SDS011;2026;51.002;13.668;2023-10-19T19:36:58;42.97;;;28.63;;
4023;SDS011;2026;51.002;13.668;2023-10-19T19:42:03;40.20;;;27.03;;
4023;SDS011;2026;51.002;13.668;2023-10-19T19:47:07;43.63;;;28.90;;
4023;SDS011;2026;51.002;13.668;2023-10-19T19:52:10;41.67;;;27.30;;
4023;SDS011;2026;51.002;13.668;2023-10-19T19:57:15;42.77;;;27.30;;
4023;SDS011;2026;51.002;13.668;2023-10-19T20:02:17;39.70;;;26.93;;
4023;SDS011;2026;51.002;13.668;2023-10-19T20:07:20;46.80;;;28.50;;
4023;SDS011;2026;51.002;13.668;2023-10-19T20:12:25;41.10;;;26.80;;
4023;SDS011;2026;51.002;13.668;2023-10-19T20:17:28;44.23;;;28.60;;
4023;SDS011;2026;51.002;13.668;2023-10-19T20:22:31;39.87;;;26.70;;
4023;SDS011;2026;51.002;13.668;2023-10-19T20:27:35;43.57;;;27.40;;
4023;SDS011;2026;51.002;13.668;2023-10-19T20:32:38;42.77;;;28.00;;
4023;SDS011;2026;51.002;13.668;2023-10-19T20:37:42;36.10;;;24.73;;
4023;SDS011;2026;51.002;13.668;2023-10-19T20:42:46;41.67;;;28.57;;
4023;SDS011;2026;51.002;13.668;2023-10-19T20:47:50;38.00;;;25.97;;
4023;SDS011;2026;51.002;13.668;2023-10-19T20:52:55;47.80;;;28.30;;
4023;SDS011;2026;51.002;13.668;2023-10-19T20:58:01;50.87;;;31.23;;
4023;SDS011;2026;51.002;13.668;2023-10-19T21:03:04;41.40;;;27.83;;
4023;SDS011;2026;51.002;13.668;2023-10-19T21:08:07;47.27;;;30.10;;
4023;SDS011;2026;51.002;13.668;2023-10-19T21:13:12;46.20;;;29.23;;
4023;SDS011;2026;51.002;13.668;2023-10-19T21:18:15;46.73;;;29.40;;
4023;SDS011;2026;51.002;13.668;2023-10-19T21:23:18;53.80;;;31.50;;
4023;SDS011;2026;51.002;13.668;2023-10-19T21:28:23;44.30;;;28.37;;
4023;SDS011;2026;51.002;13.668;2023-10-19T21:33:26;46.57;;;27.97;;
4023;SDS011;2026;51.002;13.668;2023-10-19T21:38:30;44.30;;;28.50;;
4023;SDS011;2026;51.002;13.668;2023-10-19T21:43:35;41.90;;;28.13;;
4023;SDS011;2026;51.002;13.668;2023-10-19T21:48:38;41.87;;;27.03;;
4023;SDS011;2026;51.002;13.668;2023-10-19T21:53:41;42.47;;;26.83;;
4023;SDS011;2026;51.002;13.668;2023-10-19T21:58:46;42.13;;;26.33;;
4023;SDS011;2026;51.002;13.668;2023-10-19T22:03:49;44.60;;;27.70;;
4023;SDS011;2026;51.002;13.668;2023-10-19T22:08:53;43.53;;;28.10;;
4023;SDS011;2026;51.002;13.668;2023-10-19T22:13:59;45.10;;;27.83;;
4023;SDS011;2026;51.002;13.668;2023-10-19T22:19:02;44.07;;;27.90;;
4023;SDS011;2026;51.002;13.668;2023-10-19T22:24:05;43.27;;;28.20;;
4023;SDS011;2026;51.002;13.668;2023-10-19T22:29:11;45.83;;;28.27;;
4023;SDS011;2026;51.002;13.668;2023-10-19T22:34:14;44.67;;;27.80;;
4023;SDS011;2026;51.002;13.668;2023-10-19T22:39:17;43.50;;;27.93;;
4023;SDS011;2026;51.002;13.668;2023-10-19T22:44:22;45.10;;;29.63;;
4023;SDS011;2026;51.002;13.668;2023-10-19T22:49:25;49.00;;;32.30;;
4023;SDS011;2026;51.002;13.668;2023-10-19T22:54:28;48.53;;;30.00;;
4023;SDS011;2026;51.002;13.668;2023-10-19T22:59:33;46.10;;;29.63;;
4023;SDS011;2026;51.002;13.668;2023-10-19T23:04:36;49.37;;;31.10;;
4023;SDS011;2026;51.002;13.668;2023-10-19T23:09:41;53.57;;;32.70;;
4023;SDS011;2026;51.002;13.668;2023-10-19T23:14:45;50.90;;;32.60;;
4023;SDS011;2026;51.002;13.668;2023-10-19T23:19:48;53.23;;;32.07;;
4023;SDS011;2026;51.002;13.668;2023-10-19T23:24:54;50.53;;;31.07;;
4023;SDS011;2026;51.002;13.668;2023-10-19T23:30:00;55.70;;;33.70;;
4023;SDS011;2026;51.002;13.668;2023-10-19T23:35:07;49.83;;;30.73;;
4023;SDS011;2026;51.002;13.668;2023-10-19T23:40:11;55.53;;;33.57;;
4023;SDS011;2026;51.002;13.668;2023-10-19T23:45:16;51.23;;;32.53;;
4023;SDS011;2026;51.002;13.668;2023-10-19T23:50:20;48.23;;;31.40;;
4023;SDS011;2026;51.002;13.668;2023-10-19T23:55:23;52.53;;;33.40;;
